Time;durP1;ratioP1;P1;durP2;ratioP2;P2;SDS_P1;SDS_P2;PMS_P1;PMS_P2;Temp;Humidity;BMP_temperature;BMP_pressure;BME280_temperature;BME280_humidity;BME280_pressure;Samples;Min_cycle;Max_cycle;Signal;HPM_P1;HPM_P2
2022/09/05 00:01:47;;;;;;;6.03;5.32;;;;;;;;;;5080644;28;20040;-74
2022/09/05 00:04:40;;;;;;;6.68;5.40;;;;;;;;;;5079684;28;20108;-74
2022/09/05 00:07:10;;;;;;;7.00;5.80;;;;;;;;;;5079190;28;20363;-75
2022/09/05 00:10:00;;;;;;;10.77;6.25;;;;;;;;;;5046876;28;20037;-74
2022/09/05 00:12:26;;;;;;;7.68;6.38;;;;;;;;;;5078994;28;20109;-74
2022/09/05 00:15:00;;;;;;;7.50;6.40;;;;;;;;;;5059675;28;20024;-75
2022/09/05 00:17:34;;;;;;;10.52;6.47;;;;;;;;;;5055229;28;20029;-74
2022/09/05 00:20:00;;;;;;;8.52;6.10;;;;;;;;;;5077238;28;20028;-74
2022/09/05 00:22:34;;;;;;;8.30;7.03;;;;;;;;;;5082508;28;20566;-74
2022/09/05 00:25:18;;;;;;;8.50;7.22;;;;;;;;;;5079389;28;20016;-75
2022/09/05 00:27:56;;;;;;;12.82;7.57;;;;;;;;;;5082037;28;20059;-74
2022/09/05 00:30:22;;;;;;;8.82;7.38;;;;;;;;;;5081368;28;20066;-74
2022/09/05 00:33:06;;;;;;;8.93;7.32;;;;;;;;;;5064131;28;20024;-75
2022/09/05 00:35:59;;;;;;;8.85;6.55;;;;;;;;;;5082214;28;20043;-74
2022/09/05 00:38:25;;;;;;;13.63;6.85;;;;;;;;;;5074205;28;20141;-74
2022/09/05 00:40:58;;;;;;;8.35;7.03;;;;;;;;;;5062055;28;20052;-74
2022/09/05 00:43:27;;;;;;;7.03;6.32;;;;;;;;;;5059709;28;20538;-74
2022/09/05 00:46:09;;;;;;;7.78;6.72;;;;;;;;;;5060063;28;20023;-74
2022/09/05 00:48:45;;;;;;;12.20;7.07;;;;;;;;;;5043474;28;20047;-74
2022/09/05 00:51:11;;;;;;;9.27;6.85;;;;;;;;;;5044320;28;20111;-74
2022/09/05 00:53:56;;;;;;;10.07;7.55;;;;;;;;;;5075449;28;20117;-74
2022/09/05 00:56:31;;;;;;;10.60;7.43;;;;;;;;;;5076269;28;20032;-74
2022/09/05 00:59:24;;;;;;;9.35;7.28;;;;;;;;;;5072820;28;20063;-74
2022/09/05 01:01:57;;;;;;;12.25;7.07;;;;;;;;;;5075108;28;20535;-74
2022/09/05 01:04:41;;;;;;;9.10;7.70;;;;;;;;;;5054688;28;20438;-74
2022/09/05 01:07:13;;;;;;;8.90;7.93;;;;;;;;;;5037390;28;20082;-74
2022/09/05 01:10:02;;;;;;;11.32;7.30;;;;;;;;;;5073942;28;20448;-74
2022/09/05 01:13:06;;;;;;;9.32;7.53;;;;;;;;;;5078148;28;20110;-73
2022/09/05 01:16:09;;;;;;;8.65;7.25;;;;;;;;;;5056020;28;20079;-74
2022/09/05 01:18:56;;;;;;;7.63;6.80;;;;;;;;;;5055059;28;20033;-74
2022/09/05 01:21:36;;;;;;;9.68;7.68;;;;;;;;;;5081649;28;20280;-74
2022/09/05 01:24:24;;;;;;;8.18;7.43;;;;;;;;;;5056272;28;20028;-74
2022/09/05 01:26:58;;;;;;;8.93;7.70;;;;;;;;;;5080973;28;20056;-74
2022/09/05 01:29:36;;;;;;;13.00;7.78;;;;;;;;;;5077944;28;20499;-74
2022/09/05 01:32:20;;;;;;;11.23;8.00;;;;;;;;;;5075050;28;20123;-74
2022/09/05 01:35:36;;;;;;;8.85;7.20;;;;;;;;;;5076180;28;20069;-74
2022/09/05 01:38:13;;;;;;;11.93;8.70;;;;;;;;;;5068327;28;20425;-74
2022/09/05 01:41:20;;;;;;;8.82;7.85;;;;;;;;;;5059973;28;20598;-75
2022/09/05 01:44:04;;;;;;;10.60;8.73;;;;;;;;;;5076092;28;20028;-75
2022/09/05 01:46:56;;;;;;;9.68;8.35;;;;;;;;;;5080138;28;20020;-74
2022/09/05 01:49:49;;;;;;;11.23;8.25;;;;;;;;;;5074494;28;20024;-74
2022/09/05 01:52:18;;;;;;;21.67;9.40;;;;;;;;;;5079597;28;20016;-74
2022/09/05 01:55:14;;;;;;;12.27;8.55;;;;;;;;;;5075855;28;20115;-74
2022/09/05 01:57:55;;;;;;;13.90;9.35;;;;;;;;;;5074888;28;20107;-74
2022/09/05 02:00:23;;;;;;;11.70;8.80;;;;;;;;;;5076892;28;20048;-74
2022/09/05 02:02:51;;;;;;;11.75;8.38;;;;;;;;;;5044318;28;20075;-74
2022/09/05 02:05:37;;;;;;;13.93;8.68;;;;;;;;;;5081154;28;20028;-74
2022/09/05 02:08:21;;;;;;;11.60;9.10;;;;;;;;;;5080093;28;20034;-75
2022/09/05 02:11:01;;;;;;;12.27;9.05;;;;;;;;;;5077868;28;20491;-75
2022/09/05 02:13:33;;;;;;;10.25;8.77;;;;;;;;;;5081926;28;20040;-73
2022/09/05 02:15:58;;;;;;;14.20;8.60;;;;;;;;;;5074942;28;20032;-73
2022/09/05 02:18:28;;;;;;;14.55;9.25;;;;;;;;;;5080591;28;20084;-74
2022/09/05 02:20:58;;;;;;;12.00;9.57;;;;;;;;;;5060750;28;20046;-73
2022/09/05 02:23:27;;;;;;;10.70;8.82;;;;;;;;;;5047412;28;20020;-73
2022/09/05 02:25:57;;;;;;;12.75;9.35;;;;;;;;;;5059114;28;20056;-74
2022/09/05 02:28:55;;;;;;;10.38;8.52;;;;;;;;;;5058936;28;20517;-73
2022/09/05 02:31:38;;;;;;;11.75;9.02;;;;;;;;;;5053021;28;20411;-73
2022/09/05 02:34:19;;;;;;;;;;;;;;;;;;5077573;28;20415;-73
2022/09/05 02:36:52;;;;;;;13.20;9.80;;;;;;;;;;5076611;28;19916;-73
2022/09/05 02:39:47;;;;;;;19.17;11.17;;;;;;;;;;5073337;28;20052;-74
2022/09/05 02:42:24;;;;;;;11.75;9.77;;;;;;;;;;5061157;28;20305;-73
2022/09/05 02:44:51;;;;;;;13.48;9.70;;;;;;;;;;5060003;28;20032;-74
2022/09/05 02:47:46;;;;;;;12.73;11.05;;;;;;;;;;5075772;28;20035;-73
2022/09/05 02:50:30;;;;;;;11.65;10.55;;;;;;;;;;5075834;28;20039;-74
2022/09/05 02:52:55;;;;;;;;;;;;;;;;;;5064562;28;20028;-74
2022/09/05 02:55:49;;;;;;;11.75;10.60;;;;;;;;;;5075105;28;19923;-74
2022/09/05 02:58:22;;;;;;;;;;;;;;;;;;5081362;28;20040;-74
2022/09/05 03:00:56;;;;;;;13.98;11.50;;;;;;;;;;5072492;28;20331;-74
2022/09/05 03:03:33;;;;;;;14.48;11.48;;;;;;;;;;5047793;28;20024;-74
2022/09/05 03:06:17;;;;;;;13.43;11.95;;;;;;;;;;5047608;28;20025;-74
2022/09/05 03:08:58;;;;;;;13.95;12.63;;;;;;;;;;5073941;28;20037;-75
2022/09/05 03:11:45;;;;;;;14.15;12.75;;;;;;;;;;5076949;28;20039;-74
2022/09/05 03:14:17;;;;;;;15.85;14.18;;;;;;;;;;5072974;28;20477;-74
2022/09/05 03:17:03;;;;;;;14.77;13.38;;;;;;;;;;5071502;28;20084;-74
2022/09/05 03:19:49;;;;;;;15.80;14.15;;;;;;;;;;5071144;28;20596;-74
2022/09/05 03:22:52;;;;;;;16.38;13.20;;;;;;;;;;5073214;28;20020;-74
2022/09/05 03:25:36;;;;;;;15.45;13.43;;;;;;;;;;5044118;28;20147;-74
2022/09/05 03:28:25;;;;;;;15.88;12.55;;;;;;;;;;5071505;28;20044;-74
2022/09/05 03:30:56;;;;;;;16.52;15.00;;;;;;;;;;5078141;28;20067;-74
2022/09/05 03:33:54;;;;;;;23.58;15.15;;;;;;;;;;5073184;28;20037;-74
2022/09/05 03:36:26;;;;;;;16.27;14.57;;;;;;;;;;5069854;28;20060;-75
2022/09/05 03:39:08;;;;;;;20.58;14.55;;;;;;;;;;5079956;28;20087;-74
2022/09/05 03:41:57;;;;;;;18.02;14.82;;;;;;;;;;5065700;28;20511;-74
2022/09/05 03:44:34;;;;;;;15.98;14.18;;;;;;;;;;5081597;28;20036;-74
2022/09/05 03:47:03;;;;;;;17.88;16.02;;;;;;;;;;5077295;28;20372;-74
2022/09/05 03:49:47;;;;;;;23.67;17.08;;;;;;;;;;5082298;28;20057;-74
2022/09/05 03:52:30;;;;;;;18.90;16.90;;;;;;;;;;5079505;28;20033;-75
2022/09/05 03:55:14;;;;;;;16.83;15.13;;;;;;;;;;5096239;28;20399;-75
2022/09/05 03:58:09;;;;;;;17.92;16.13;;;;;;;;;;5081807;28;20024;-75
2022/09/05 04:00:35;;;;;;;21.92;16.60;;;;;;;;;;5049928;28;20173;-74
2022/09/05 04:03:29;;;;;;;16.77;15.07;;;;;;;;;;5064605;28;20027;-74
2022/09/05 04:06:31;;;;;;;17.27;15.57;;;;;;;;;;5077557;28;20024;-75
2022/09/05 04:09:26;;;;;;;19.45;17.58;;;;;;;;;;5063558;28;20043;-74
2022/09/05 04:11:56;;;;;;;18.65;16.85;;;;;;;;;;5079041;28;20123;-75
2022/09/05 04:14:29;;;;;;;17.83;16.13;;;;;;;;;;5063136;28;20451;-74
2022/09/05 04:16:58;;;;;;;19.63;17.27;;;;;;;;;;5075259;28;20391;-74
2022/09/05 04:19:38;;;;;;;19.58;17.58;;;;;;;;;;5063700;28;20053;-75
2022/09/05 04:22:21;;;;;;;19.58;17.55;;;;;;;;;;5075771;28;20039;-74
2022/09/05 04:24:49;;;;;;;20.60;18.40;;;;;;;;;;5062065;28;20024;-75
2022/09/05 04:27:24;;;;;;;22.77;20.08;;;;;;;;;;5074769;28;20060;-74
2022/09/05 04:30:16;;;;;;;22.10;20.05;;;;;;;;;;5077826;28;20306;-74
2022/09/05 04:32:57;;;;;;;21.55;19.27;;;;;;;;;;5063264;28;20028;-74
2022/09/05 04:35:38;;;;;;;21.20;18.67;;;;;;;;;;5079893;28;20035;-75
2022/09/05 04:38:12;;;;;;;22.73;20.55;;;;;;;;;;5060845;28;20019;-74
2022/09/05 04:40:47;;;;;;;;;;;;;;;;;;5048632;28;20037;-75
2022/09/05 04:43:56;;;;;;;21.00;18.75;;;;;;;;;;5060133;28;20357;-75
2022/09/05 04:46:30;;;;;;;21.13;19.08;;;;;;;;;;5065320;28;20051;-73
2022/09/05 04:49:08;;;;;;;21.95;19.50;;;;;;;;;;5055714;28;20024;-71
2022/09/05 04:51:57;;;;;;;22.48;20.05;;;;;;;;;;5062139;28;20228;-70
2022/09/05 04:54:29;;;;;;;24.63;21.95;;;;;;;;;;5068542;28;20064;-70
2022/09/05 04:57:02;;;;;;;25.70;22.92;;;;;;;;;;5067904;28;20063;-71
2022/09/05 04:59:40;;;;;;;23.52;21.25;;;;;;;;;;5052505;28;20259;-71
2022/09/05 05:02:16;;;;;;;24.55;22.08;;;;;;;;;;5070076;28;20028;-71
2022/09/05 05:04:41;;;;;;;24.98;21.95;;;;;;;;;;5052097;28;20524;-71
2022/09/05 05:07:45;;;;;;;25.38;22.90;;;;;;;;;;5071172;28;20167;-71
2022/09/05 05:10:20;;;;;;;26.73;23.85;;;;;;;;;;5018403;28;20046;-71
2022/09/05 05:13:28;;;;;;;28.35;25.10;;;;;;;;;;5056413;28;20040;-71
2022/09/05 05:16:00;;;;;;;26.95;24.08;;;;;;;;;;5063585;28;20501;-71
2022/09/05 05:18:32;;;;;;;28.08;25.02;;;;;;;;;;5039173;28;20032;-71
2022/09/05 05:21:02;;;;;;;28.35;25.48;;;;;;;;;;5061751;28;20052;-71
2022/09/05 05:23:34;;;;;;;27.15;24.40;;;;;;;;;;5026728;28;20107;-71
2022/09/05 05:26:01;;;;;;;26.27;23.70;;;;;;;;;;5070274;28;20060;-71
2022/09/05 05:28:37;;;;;;;28.83;25.88;;;;;;;;;;5049004;28;20053;-71
2022/09/05 05:31:24;;;;;;;29.40;26.20;;;;;;;;;;5060258;28;20097;-71
2022/09/05 05:33:50;;;;;;;29.55;26.55;;;;;;;;;;5052410;28;20032;-72
2022/09/05 05:36:23;;;;;;;31.63;26.95;;;;;;;;;;5055759;28;20037;-71
2022/09/05 05:39:05;;;;;;;31.90;28.48;;;;;;;;;;5044744;28;20017;-71
2022/09/05 05:41:50;;;;;;;32.47;28.85;;;;;;;;;;5081440;28;20062;-72
2022/09/05 05:44:17;;;;;;;31.00;27.98;;;;;;;;;;5069169;28;20416;-71
2022/09/05 05:47:04;;;;;;;31.67;28.25;;;;;;;;;;5036368;28;20083;-71
2022/09/05 05:50:09;;;;;;;32.78;28.17;;;;;;;;;;5053505;28;20016;-71
2022/09/05 05:52:37;;;;;;;;;;;;;;;;;;5057218;28;20032;-71
2022/09/05 05:55:16;;;;;;;29.70;26.52;;;;;;;;;;5069846;28;19920;-71
2022/09/05 05:57:57;;;;;;;28.08;25.23;;;;;;;;;;5076612;28;20639;-74
2022/09/05 06:00:29;;;;;;;28.17;25.27;;;;;;;;;;5075611;28;20031;-74
2022/09/05 06:03:26;;;;;;;31.45;27.60;;;;;;;;;;5056626;28;20032;-73
2022/09/05 06:06:15;;;;;;;30.75;27.30;;;;;;;;;;5057111;28;20048;-74
2022/09/05 06:08:51;;;;;;;30.52;25.42;;;;;;;;;;5051178;28;20025;-74
2022/09/05 06:11:17;;;;;;;28.77;25.60;;;;;;;;;;5049947;28;20463;-74
2022/09/05 06:14:26;;;;;;;29.35;26.00;;;;;;;;;;5055836;28;20032;-74
2022/09/05 06:17:19;;;;;;;30.67;24.75;;;;;;;;;;5070849;28;20499;-74
2022/09/05 06:20:13;;;;;;;29.95;25.65;;;;;;;;;;5069121;28;20024;-74
2022/09/05 06:22:55;;;;;;;26.88;23.92;;;;;;;;;;5053587;28;20035;-74
2022/09/05 06:25:49;;;;;;;27.90;23.17;;;;;;;;;;5061565;28;20489;-75
2022/09/05 06:28:17;;;;;;;27.02;22.52;;;;;;;;;;5069436;28;20527;-72
2022/09/05 06:31:04;;;;;;;26.30;21.38;;;;;;;;;;5074446;28;20075;-72
2022/09/05 06:34:06;;;;;;;23.02;18.77;;;;;;;;;;5053596;28;20390;-72
2022/09/05 06:37:03;;;;;;;21.85;18.95;;;;;;;;;;5050066;28;20042;-72
2022/09/05 06:40:10;;;;;;;24.95;17.25;;;;;;;;;;5071111;28;20032;-70
2022/09/05 06:43:13;;;;;;;22.50;17.70;;;;;;;;;;5070025;28;20039;-72
2022/09/05 06:45:48;;;;;;;24.45;15.98;;;;;;;;;;5062287;28;20039;-71
2022/09/05 06:48:20;;;;;;;20.50;15.15;;;;;;;;;;5068570;28;20043;-71
2022/09/05 06:51:09;;;;;;;21.92;13.95;;;;;;;;;;5051969;28;20020;-71
2022/09/05 06:53:53;;;;;;;17.63;14.25;;;;;;;;;;5059366;28;20086;-72
2022/09/05 06:56:37;;;;;;;;;;;;;;;;;;5070383;28;20456;-71
2022/09/05 06:59:21;;;;;;;19.30;13.80;;;;;;;;;;5076363;28;19923;-71
2022/09/05 07:01:50;;;;;;;21.10;12.40;;;;;;;;;;5068393;28;20040;-71
2022/09/05 07:04:28;;;;;;;28.05;13.10;;;;;;;;;;5048962;28;20063;-70
2022/09/05 07:07:10;;;;;;;19.30;12.38;;;;;;;;;;5060286;28;20047;-70
2022/09/05 07:09:53;;;;;;;22.38;11.65;;;;;;;;;;5028364;28;20035;-70
2022/09/05 07:12:25;;;;;;;22.48;11.90;;;;;;;;;;5056869;28;20044;-70
2022/09/05 07:15:15;;;;;;;12.77;11.40;;;;;;;;;;5055182;28;20393;-70
2022/09/05 07:17:56;;;;;;;26.63;12.80;;;;;;;;;;5073788;28;20045;-71
2022/09/05 07:20:32;;;;;;;19.20;10.82;;;;;;;;;;5058958;28;20033;-71
2022/09/05 07:23:39;;;;;;;16.30;11.85;;;;;;;;;;5068712;28;20059;-71
2022/09/05 07:26:05;;;;;;;20.50;9.93;;;;;;;;;;5046368;28;20472;-71
2022/09/05 07:28:31;;;;;;;27.75;11.10;;;;;;;;;;5053823;28;20040;-71
2022/09/05 07:31:01;;;;;;;30.17;9.52;;;;;;;;;;5060804;28;20051;-71
2022/09/05 07:33:28;;;;;;;19.55;10.10;;;;;;;;;;5074593;28;20040;-71
2022/09/05 07:36:17;;;;;;;26.27;10.38;;;;;;;;;;5070045;28;20036;-74
2022/09/05 07:38:42;;;;;;;16.30;9.55;;;;;;;;;;5068838;28;20123;-74
2022/09/05 07:41:34;;;;;;;24.25;10.35;;;;;;;;;;5062383;28;21192;-75
2022/09/05 07:44:05;;;;;;;20.15;9.35;;;;;;;;;;5058339;28;20036;-75
2022/09/05 07:46:32;;;;;;;18.48;8.77;;;;;;;;;;5070665;28;20020;-72
2022/09/05 07:48:59;;;;;;;15.13;8.75;;;;;;;;;;5037074;28;20032;-72
2022/09/05 07:51:29;;;;;;;11.98;7.68;;;;;;;;;;5069358;28;20020;-72
2022/09/05 07:53:59;;;;;;;11.70;7.88;;;;;;;;;;5054293;28;20107;-72
2022/09/05 07:56:43;;;;;;;18.17;6.75;;;;;;;;;;5072190;28;20112;-72
2022/09/05 07:59:12;;;;;;;15.23;8.40;;;;;;;;;;5055895;28;20043;-73
2022/09/05 08:01:40;;;;;;;11.20;7.20;;;;;;;;;;5075974;28;20410;-72
2022/09/05 08:04:06;;;;;;;8.38;6.50;;;;;;;;;;5057244;28;20087;-72
2022/09/05 08:06:31;;;;;;;10.57;6.07;;;;;;;;;;5070947;28;20040;-72
2022/09/05 08:09:02;;;;;;;9.35;6.60;;;;;;;;;;5058244;28;20036;-72
2022/09/05 08:11:28;;;;;;;17.63;6.72;;;;;;;;;;5076897;28;20027;-72
2022/09/05 08:14:05;;;;;;;12.07;5.93;;;;;;;;;;5057157;28;20032;-73
2022/09/05 08:16:30;;;;;;;16.15;6.25;;;;;;;;;;5050230;28;20017;-73
2022/09/05 08:19:05;;;;;;;10.25;6.05;;;;;;;;;;5067884;28;20600;-73
2022/09/05 08:21:40;;;;;;;18.30;6.93;;;;;;;;;;5075967;28;20080;-73
2022/09/05 08:24:10;;;;;;;15.82;6.90;;;;;;;;;;5060658;28;20024;-73
2022/09/05 08:26:47;;;;;;;23.42;6.97;;;;;;;;;;5058031;28;20024;-73
2022/09/05 08:29:29;;;;;;;11.65;6.80;;;;;;;;;;5061285;28;20161;-73
2022/09/05 08:32:08;;;;;;;10.25;5.50;;;;;;;;;;5069002;28;20123;-76
2022/09/05 08:34:45;;;;;;;8.48;5.68;;;;;;;;;;5070963;28;20029;-76
2022/09/05 08:37:11;;;;;;;11.20;5.20;;;;;;;;;;5080032;28;20031;-76
2022/09/05 08:39:36;;;;;;;20.77;5.63;;;;;;;;;;5057174;28;20028;-76
2022/09/05 08:42:27;;;;;;;19.17;5.88;;;;;;;;;;5047793;28;20548;-76
2022/09/05 08:45:26;;;;;;;16.58;5.55;;;;;;;;;;5076027;28;20034;-76
2022/09/05 08:48:13;;;;;;;13.88;5.85;;;;;;;;;;5073004;28;20032;-76
2022/09/05 08:51:02;;;;;;;17.52;5.65;;;;;;;;;;5075530;28;20037;-76
2022/09/05 08:53:40;;;;;;;14.43;5.28;;;;;;;;;;5071770;28;20024;-76
2022/09/05 08:56:13;;;;;;;13.80;5.35;;;;;;;;;;5075041;28;20118;-76
2022/09/05 08:58:57;;;;;;;12.38;5.55;;;;;;;;;;5026660;28;20746;-76
2022/09/05 09:01:39;;;;;;;22.48;5.15;;;;;;;;;;5069840;28;20031;-76
2022/09/05 09:04:24;;;;;;;22.70;5.45;;;;;;;;;;5051974;28;20029;-76
2022/09/05 09:06:56;;;;;;;16.52;5.15;;;;;;;;;;5067831;28;20032;-76
2022/09/05 09:09:30;;;;;;;10.20;4.72;;;;;;;;;;5071093;28;20099;-77
2022/09/05 09:12:09;;;;;;;15.77;4.88;;;;;;;;;;5069881;28;20028;-77
2022/09/05 09:14:50;;;;;;;13.82;4.40;;;;;;;;;;5050690;28;20420;-77
2022/09/05 09:17:30;;;;;;;13.88;4.88;;;;;;;;;;5062951;28;20063;-77
2022/09/05 09:20:55;;;;;;;15.95;5.00;;;;;;;;;;5067074;28;20359;-76
2022/09/05 09:23:47;;;;;;;9.27;3.85;;;;;;;;;;5011559;28;20029;-76
2022/09/05 09:26:15;;;;;;;13.77;4.70;;;;;;;;;;5040120;28;20466;-76
2022/09/05 09:29:01;;;;;;;11.02;4.57;;;;;;;;;;5049015;28;20048;-76
2022/09/05 09:32:00;;;;;;;7.47;4.30;;;;;;;;;;5055404;28;20044;-76
2022/09/05 09:34:25;;;;;;;17.73;4.20;;;;;;;;;;5049023;28;20028;-76
2022/09/05 09:37:13;;;;;;;12.57;4.53;;;;;;;;;;5069419;28;20053;-76
2022/09/05 09:40:16;;;;;;;10.45;4.22;;;;;;;;;;5067334;28;20039;-77
2022/09/05 09:42:52;;;;;;;10.73;3.38;;;;;;;;;;5065541;28;20031;-77
2022/09/05 09:45:27;;;;;;;14.00;3.10;;;;;;;;;;5053320;28;20104;-77
2022/09/05 09:48:14;;;;;;;7.20;3.65;;;;;;;;;;5070072;28;20032;-77
2022/09/05 09:51:11;;;;;;;6.45;3.28;;;;;;;;;;5051716;28;20379;-77
2022/09/05 09:53:59;;;;;;;5.85;3.00;;;;;;;;;;5061613;28;20047;-77
2022/09/05 09:57:02;;;;;;;11.15;3.63;;;;;;;;;;5070773;28;20036;-77
2022/09/05 09:59:58;;;;;;;11.70;3.90;;;;;;;;;;5069569;28;20032;-76
2022/09/05 10:02:51;;;;;;;9.82;2.83;;;;;;;;;;5052397;28;20071;-77
2022/09/05 10:05:50;;;;;;;10.25;3.10;;;;;;;;;;5065109;28;20400;-76
2022/09/05 10:08:42;;;;;;;5.80;2.60;;;;;;;;;;5064204;28;20420;-76
2022/09/05 10:11:17;;;;;;;4.72;2.70;;;;;;;;;;5067642;28;20032;-76
2022/09/05 10:13:56;;;;;;;7.05;2.47;;;;;;;;;;5036601;28;20115;-76
2022/09/05 10:16:43;;;;;;;24.25;4.40;;;;;;;;;;5057128;28;20029;-76
2022/09/05 10:19:33;;;;;;;5.55;2.00;;;;;;;;;;5070503;28;20028;-76
2022/09/05 10:22:23;;;;;;;4.50;2.10;;;;;;;;;;5070507;28;20035;-76
2022/09/05 10:25:14;;;;;;;7.20;2.95;;;;;;;;;;5069780;28;20044;-76
2022/09/05 10:28:11;;;;;;;3.78;2.20;;;;;;;;;;5035494;28;20040;-76
2022/09/05 10:30:41;;;;;;;4.20;2.15;;;;;;;;;;5049436;28;20071;-76
2022/09/05 10:33:28;;;;;;;4.63;2.10;;;;;;;;;;5064483;28;20048;-76
2022/09/05 10:35:59;;;;;;;10.07;2.53;;;;;;;;;;5067398;28;20036;-76
2022/09/05 10:38:44;;;;;;;6.90;2.20;;;;;;;;;;5018403;28;20039;-76
2022/09/05 10:41:12;;;;;;;4.50;2.13;;;;;;;;;;5035022;28;20032;-76
2022/09/05 10:44:13;;;;;;;3.83;2.45;;;;;;;;;;5054925;28;20475;-76
2022/09/05 10:47:01;;;;;;;3.85;2.13;;;;;;;;;;5036288;28;20025;-76
2022/09/05 10:49:27;;;;;;;3.63;2.20;;;;;;;;;;5054866;28;20043;-76
2022/09/05 10:51:58;;;;;;;3.92;1.60;;;;;;;;;;5074157;28;20020;-76
2022/09/05 10:54:44;;;;;;;5.38;1.85;;;;;;;;;;5075624;28;20031;-76
2022/09/05 10:57:12;;;;;;;2.97;1.50;;;;;;;;;;5076285;28;20024;-76
2022/09/05 11:00:21;;;;;;;6.72;2.22;;;;;;;;;;5059913;28;20105;-76
2022/09/05 11:02:48;;;;;;;5.55;2.80;;;;;;;;;;5067370;28;20045;-76
2022/09/05 11:05:18;;;;;;;5.72;2.20;;;;;;;;;;5035395;28;20498;-76
2022/09/05 11:08:19;;;;;;;5.88;2.22;;;;;;;;;;5074115;28;20079;-76
2022/09/05 11:10:58;;;;;;;6.13;2.47;;;;;;;;;;5062434;28;20068;-76
2022/09/05 11:14:01;;;;;;;8.32;2.10;;;;;;;;;;5068348;28;20384;-76
2022/09/05 11:16:47;;;;;;;4.75;1.92;;;;;;;;;;5047613;28;20071;-76
2022/09/05 11:19:18;;;;;;;4.03;2.45;;;;;;;;;;5051916;28;20448;-76
2022/09/05 11:21:50;;;;;;;5.57;2.25;;;;;;;;;;5052081;28;20439;-76
2022/09/05 11:24:23;;;;;;;4.38;2.28;;;;;;;;;;5067316;28;20055;-76
2022/09/05 11:26:56;;;;;;;3.63;2.28;;;;;;;;;;5066869;28;20052;-76
2022/09/05 11:29:34;;;;;;;4.25;2.17;;;;;;;;;;5048828;28;20041;-76
2022/09/05 11:32:24;;;;;;;2.75;1.83;;;;;;;;;;5072812;28;20505;-76
2022/09/05 11:34:57;;;;;;;5.90;2.30;;;;;;;;;;5069985;28;20480;-76
2022/09/05 11:37:34;;;;;;;;;;;;;;;;;;5073185;28;20034;-76
2022/09/05 11:40:12;;;;;;;6.00;1.95;;;;;;;;;;5074138;28;19927;-76
2022/09/05 11:42:43;;;;;;;4.82;1.90;;;;;;;;;;5052343;28;20032;-76
2022/09/05 11:45:23;;;;;;;4.72;2.15;;;;;;;;;;5075363;28;20032;-76
2022/09/05 11:48:25;;;;;;;8.07;1.77;;;;;;;;;;5064665;28;20036;-76
2022/09/05 11:51:22;;;;;;;6.53;2.03;;;;;;;;;;5052856;28;20223;-76
2022/09/05 11:54:26;;;;;;;3.53;1.80;;;;;;;;;;5064132;28;20109;-76
2022/09/05 11:57:11;;;;;;;6.00;1.98;;;;;;;;;;5065483;28;20480;-76
2022/09/05 12:00:14;;;;;;;6.95;1.80;;;;;;;;;;5068423;28;20431;-76
2022/09/05 12:02:57;;;;;;;3.38;1.90;;;;;;;;;;5063724;28;20029;-76
2022/09/05 12:06:07;;;;;;;4.32;2.00;;;;;;;;;;5066542;28;20033;-76
2022/09/05 12:08:51;;;;;;;4.55;1.63;;;;;;;;;;5027896;28;20037;-76
2022/09/05 12:11:58;;;;;;;4.35;1.90;;;;;;;;;;5069323;28;20563;-76
2022/09/05 12:15:01;;;;;;;5.50;1.80;;;;;;;;;;5060233;28;20097;-76
2022/09/05 12:17:34;;;;;;;3.33;1.80;;;;;;;;;;5076974;28;20091;-76
2022/09/05 12:20:37;;;;;;;2.65;1.67;;;;;;;;;;5037041;28;20055;-76
2022/09/05 12:23:21;;;;;;;3.53;1.67;;;;;;;;;;5060324;28;20040;-76
2022/09/05 12:25:56;;;;;;;4.32;2.33;;;;;;;;;;5032507;28;20044;-76
2022/09/05 12:28:35;;;;;;;7.50;1.92;;;;;;;;;;5057742;28;20045;-76
2022/09/05 12:31:32;;;;;;;4.00;2.28;;;;;;;;;;5037338;28;20052;-76
2022/09/05 12:33:59;;;;;;;3.25;1.70;;;;;;;;;;5062606;28;20118;-76
2022/09/05 12:36:37;;;;;;;4.35;1.67;;;;;;;;;;5054453;28;20027;-76
2022/09/05 12:39:29;;;;;;;3.65;1.73;;;;;;;;;;5069605;28;20425;-76
2022/09/05 12:41:59;;;;;;;4.10;1.67;;;;;;;;;;5051809;28;20166;-75
2022/09/05 12:44:27;;;;;;;3.10;1.50;;;;;;;;;;5071288;28;20032;-76
2022/09/05 12:46:58;;;;;;;3.20;1.80;;;;;;;;;;5064874;28;20174;-75
2022/09/05 12:50:05;;;;;;;2.70;1.40;;;;;;;;;;5034640;28;20081;-75
2022/09/05 12:52:32;;;;;;;8.15;1.58;;;;;;;;;;5003751;28;20033;-75
2022/09/05 12:55:09;;;;;;;3.85;1.58;;;;;;;;;;5045717;28;20048;-75
2022/09/05 12:57:36;;;;;;;2.42;1.38;;;;;;;;;;5040684;28;20450;-75
2022/09/05 13:00:08;;;;;;;4.95;1.73;;;;;;;;;;5058085;28;20577;-75
2022/09/05 13:02:33;;;;;;;;;;;;;;;;;;5039008;28;20067;-75
2022/09/05 13:05:05;;;;;;;4.55;1.63;;;;;;;;;;5074630;28;19912;-75
2022/09/05 13:07:55;;;;;;;4.22;1.55;;;;;;;;;;5038771;28;20584;-76
2022/09/05 13:10:38;;;;;;;5.32;1.63;;;;;;;;;;5056590;28;20031;-76
2022/09/05 13:13:07;;;;;;;7.05;1.63;;;;;;;;;;5037598;28;20438;-76
2022/09/05 13:15:37;;;;;;;5.32;1.58;;;;;;;;;;5052969;28;20033;-76
2022/09/05 13:18:15;;;;;;;2.88;1.67;;;;;;;;;;5034152;28;20158;-76
2022/09/05 13:20:49;;;;;;;4.60;1.67;;;;;;;;;;5067685;28;20499;-76
2022/09/05 13:23:21;;;;;;;3.20;1.70;;;;;;;;;;5037393;28;20032;-76
2022/09/05 13:26:16;;;;;;;2.42;1.38;;;;;;;;;;5034277;28;20067;-76
2022/09/05 13:28:57;;;;;;;2.75;1.33;;;;;;;;;;5067010;28;20052;-77
2022/09/05 13:31:41;;;;;;;5.77;1.43;;;;;;;;;;5069548;28;20040;-76
2022/09/05 13:34:24;;;;;;;4.22;1.70;;;;;;;;;;5069249;28;20040;-76
2022/09/05 13:37:27;;;;;;;4.50;1.48;;;;;;;;;;5075359;28;20467;-76
2022/09/05 13:39:58;;;;;;;4.22;1.48;;;;;;;;;;5058159;28;20059;-76
2022/09/05 13:42:29;;;;;;;;;;;;;;;;;;5056074;28;20052;-77
2022/09/05 13:44:56;;;;;;;4.97;1.63;;;;;;;;;;5056217;28;19912;-77
2022/09/05 13:48:00;;;;;;;3.50;1.33;;;;;;;;;;5054589;28;20108;-77
2022/09/05 13:50:28;;;;;;;2.47;1.70;;;;;;;;;;5030062;28;20049;-77
2022/09/05 13:53:03;;;;;;;6.53;1.95;;;;;;;;;;5038994;28;20037;-77
2022/09/05 13:55:42;;;;;;;5.05;1.75;;;;;;;;;;5038835;28;20105;-77
2022/09/05 13:58:15;;;;;;;5.63;1.50;;;;;;;;;;5055851;28;20037;-77
2022/09/05 14:01:08;;;;;;;2.70;1.55;;;;;;;;;;5061963;28;20118;-77
2022/09/05 14:03:53;;;;;;;4.97;2.05;;;;;;;;;;5059426;28;20060;-77
2022/09/05 14:06:47;;;;;;;3.10;1.95;;;;;;;;;;5068218;28;20353;-77
2022/09/05 14:09:58;;;;;;;4.63;1.67;;;;;;;;;;5068647;28;20036;-77
2022/09/05 14:12:39;;;;;;;4.72;1.88;;;;;;;;;;5067071;28;20037;-77
2022/09/05 14:15:36;;;;;;;10.85;2.08;;;;;;;;;;5068719;28;20039;-77
2022/09/05 14:18:31;;;;;;;13.43;2.00;;;;;;;;;;5069441;28;20504;-77
2022/09/05 14:21:15;;;;;;;14.95;2.03;;;;;;;;;;5050402;28;20031;-77
2022/09/05 14:23:52;;;;;;;13.25;2.33;;;;;;;;;;5071941;28;20467;-77
2022/09/05 14:26:35;;;;;;;8.55;2.17;;;;;;;;;;5067286;28;20042;-77
2022/09/05 14:29:13;;;;;;;9.70;2.53;;;;;;;;;;5032910;28;20384;-77
2022/09/05 14:31:47;;;;;;;7.05;2.15;;;;;;;;;;5069432;28;20455;-75
2022/09/05 14:34:33;;;;;;;9.20;2.47;;;;;;;;;;5071272;28;20585;-75
2022/09/05 14:37:07;;;;;;;7.28;2.50;;;;;;;;;;5053109;28;20043;-75
2022/09/05 14:39:56;;;;;;;11.98;2.08;;;;;;;;;;5063031;28;20463;-75
2022/09/05 14:42:39;;;;;;;5.88;2.30;;;;;;;;;;5069123;28;20403;-76
2022/09/05 14:45:23;;;;;;;7.40;2.33;;;;;;;;;;5068324;28;20049;-76
2022/09/05 14:48:14;;;;;;;7.65;2.47;;;;;;;;;;5067005;28;20017;-76
2022/09/05 14:51:01;;;;;;;3.97;1.88;;;;;;;;;;5050765;28;20040;-76
2022/09/05 14:53:28;;;;;;;5.10;1.85;;;;;;;;;;5051790;28;20028;-75
2022/09/05 14:56:05;;;;;;;10.30;2.50;;;;;;;;;;5051090;28;20033;-76
2022/09/05 14:58:31;;;;;;;6.97;1.95;;;;;;;;;;5017829;28;20071;-76
2022/09/05 15:01:04;;;;;;;10.20;2.08;;;;;;;;;;5050151;28;20059;-76
2022/09/05 15:03:38;;;;;;;8.90;2.42;;;;;;;;;;5068085;28;20032;-76
2022/09/05 15:06:19;;;;;;;4.10;2.35;;;;;;;;;;5047711;28;20701;-76
2022/09/05 15:08:48;;;;;;;6.00;2.10;;;;;;;;;;5050270;28;20024;-74
2022/09/05 15:11:22;;;;;;;7.00;2.08;;;;;;;;;;5055969;28;20491;-74
2022/09/05 15:13:55;;;;;;;15.43;1.95;;;;;;;;;;5044705;28;20439;-75
2022/09/05 15:16:21;;;;;;;5.68;2.03;;;;;;;;;;5053337;28;20489;-75
2022/09/05 15:18:48;;;;;;;7.00;2.10;;;;;;;;;;5063662;28;20067;-75
2022/09/05 15:21:28;;;;;;;4.22;2.10;;;;;;;;;;5047625;28;20043;-77
2022/09/05 15:24:15;;;;;;;6.53;2.25;;;;;;;;;;5067174;28;20028;-75
2022/09/05 15:26:51;;;;;;;8.77;2.10;;;;;;;;;;5047555;28;20031;-75
2022/09/05 15:29:25;;;;;;;9.25;2.25;;;;;;;;;;5044067;28;20059;-75
2022/09/05 15:31:52;;;;;;;5.40;2.47;;;;;;;;;;5046906;28;20040;-75
2022/09/05 15:34:25;;;;;;;7.47;2.25;;;;;;;;;;5067833;28;20135;-75
2022/09/05 15:36:50;;;;;;;11.45;2.63;;;;;;;;;;5050190;28;20488;-75
2022/09/05 15:39:19;;;;;;;9.32;2.30;;;;;;;;;;5044646;28;20021;-75
2022/09/05 15:41:45;;;;;;;5.88;2.00;;;;;;;;;;5063505;28;20028;-75
2022/09/05 15:44:11;;;;;;;3.72;1.88;;;;;;;;;;5050013;28;20460;-75
2022/09/05 15:46:50;;;;;;;5.85;2.05;;;;;;;;;;5054194;28;20433;-75
2022/09/05 15:49:37;;;;;;;8.23;2.10;;;;;;;;;;5055807;28;20464;-75
2022/09/05 15:52:04;;;;;;;6.72;2.33;;;;;;;;;;5055303;28;20124;-75
2022/09/05 15:54:45;;;;;;;5.53;1.75;;;;;;;;;;5054961;28;20020;-75
2022/09/05 15:57:11;;;;;;;5.90;1.95;;;;;;;;;;5070288;28;20113;-75